Latest Weather Observations for Holsworthy (Defence)

IDN60801

Issued at 4:22 pm EST Sunday 23 September 2018 (issued every 10 minutes, with the page automatically refreshed every 10 minutes)

About weather observations | Map of weather stations | Latest weather observations for NSW | Other Formats
Station Details ID: 068263 Name: HOLSWORTHY (DEFENCE) Lat: -34.08 Lon: 150.90 Height: 165.0 m
Data from the previous 72 hours. | See also: Recent months for locations in New South Wales
Date/Time
EST
Temp
°C
App
Temp
°C
Dew
Point
°C
Rel
Hum
%
Delta-T
°C
Wind Press
QNH
hPa
Press
MSL
hPa
Rain since
9am
mm
Dir  Spd
km/h
Gust
km/h
Spd
kts
Gust
kts
23/04:00pm 16.1 11.8 9.5 65 3.5 SE 22 35 12 19 - - 0.0
23/03:30pm 16.6 13.4 10.0 65 3.5 SE 17 30 9 16 - - 0.0
23/03:00pm 17.2 14.4 9.9 62 3.9 SSE 15 26 8 14 - - 0.0
23/02:30pm 17.3 13.7 10.0 62 3.9 SSE 19 35 10 19 - - 0.0
23/02:00pm 17.9 14.8 10.3 61 4.1 SSE 17 32 9 17 - - 0.0
23/01:30pm 18.5 15.3 9.8 57 4.6 SSE 17 28 9 15 - - 0.0
23/01:00pm 18.9 15.6 9.4 54 5.0 SE 17 30 9 16 - - 0.0
23/12:30pm 18.7 15.6 8.7 52 5.2 SE 15 26 8 14 - - 0.0
23/12:00pm 18.7 15.9 8.7 52 5.2 SE 13 28 7 15 - - 0.0
23/11:30am 18.9 15.9 9.1 53 5.2 SSE 15 24 8 13 - - 0.0
23/11:00am 18.6 16.2 8.8 53 5.1 SSE 11 24 6 13 - - 0.0
23/10:30am 17.4 15.4 8.8 57 4.5 SSE 9 19 5 10 - - 0.0
23/10:00am 17.2 15.3 9.1 59 4.2 SSE 9 20 5 11 - - 0.0
23/09:30am 17.1 14.6 9.8 62 3.9 SSE 13 22 7 12 - - 0.0
23/09:00am 17.1 15.4 10.0 63 3.8 SSE 9 20 5 11 - - 0.0
23/08:30am 15.8 13.5 10.3 70 2.9 SSE 13 24 7 13 - - 0.0
23/08:00am 15.2 13.7 10.6 74 2.4 SSW 9 19 5 10 - - 0.0
23/07:30am 13.4 12.1 10.0 80 1.8 SSW 7 13 4 7 - - 0.0
23/07:00am 11.5 9.8 8.2 80 1.6 SSW 7 11 4 6 - - 0.0
23/06:30am 9.2 7.4 7.3 88 0.9 SW 6 7 3 4 - - 0.0
23/06:00am 8.7 7.2 6.7 87 0.9 SSW 4 7 2 4 - - 0.0
23/05:30am 8.9 7.4 7.0 88 0.9 SW 4 6 2 3 - - 0.0
23/05:00am 8.8 6.8 6.9 88 0.9 SSE 7 9 4 5 - - 0.0
23/04:30am 8.7 6.9 7.3 91 0.7 S 6 9 3 5 - - 0.0
23/04:00am 8.6 6.5 6.7 88 0.9 SSE 7 9 4 5 - - 0.0
23/03:30am 10.0 8.4 7.9 87 1.0 SSE 6 6 3 3 - - 0.0
23/03:00am 10.3 9.1 7.9 85 1.2 SSE 4 6 2 3 - - 0.0
23/02:30am 10.7 9.2 8.3 85 1.2 SSE 6 11 3 6 - - 0.0
23/02:00am 10.9 9.2 8.3 84 1.3 SSE 7 9 4 5 - - 0.0
23/01:30am 11.4 9.3 8.1 80 1.6 SSE 9 13 5 7 - - 0.0
23/01:00am 10.8 8.0 2.9 58 3.5 SSE 7 9 4 5 - - 0.0
23/12:30am 12.9 10.2 2.7 50 4.5 S 6 9 3 5 - - 0.0
23/12:00am 13.7 11.0 2.9 48 4.8 S 6 7 3 4 - - 0.0
 
Date/Time
EST
Temp
°C
App
Temp
°C
Dew
Point
°C
Rel
Hum
%
Delta-T
°C
Wind Press
QNH
hPa
Press
MSL
hPa
Rain since
9am
mm
Dir  Spd
km/h
Gust
km/h
Spd
kts
Gust
kts
22/11:30pm 14.9 11.7 2.8 44 5.5 SSW 9 15 5 8 - - 0.0
22/11:00pm 15.2 12.1 3.4 45 5.4 SW 9 13 5 7 - - 0.0
22/10:30pm 14.7 11.8 4.4 50 4.8 SSW 9 15 5 8 - - 0.0
22/10:00pm 13.5 11.5 7.3 66 3.1 S 7 13 4 7 - - 0.0
22/09:30pm 12.9 11.5 8.8 76 2.1 SSE 6 7 3 4 - - 0.0
22/09:00pm 13.2 11.8 8.9 75 2.2 SSE 6 7 3 4 - - 0.0
22/08:30pm 14.0 12.5 9.0 72 2.6 S 7 9 4 5 - - 0.0
22/08:00pm 14.7 13.2 8.6 67 3.1 S 6 7 3 4 - - 0.0
22/07:30pm 16.0 14.9 8.5 61 3.8 ESE 4 6 2 3 - - 0.0
22/07:00pm 17.0 16.3 8.4 57 4.4 ENE 2 4 1 2 - - 0.0
22/06:30pm 17.4 16.3 8.5 56 4.6 ENE 4 4 2 2 - - 0.0
22/06:00pm 18.2 17.5 8.7 54 5.0 ENE 2 4 1 2 - - 0.0
22/05:30pm 19.1 18.4 8.7 51 5.5 ESE 2 6 1 3 - - 0.0
22/05:00pm 20.0 18.6 8.7 48 6.0 ENE 6 11 3 6 - - 0.0
22/04:30pm 21.0 19.5 8.6 45 6.6 NE 6 9 3 5 - - 0.0
22/04:00pm 21.9 19.7 7.7 40 7.4 NNE 9 15 5 8 - - 0.0
22/03:30pm 22.8 20.9 8.9 41 7.5 NNE 9 19 5 10 - - 0.0
22/03:00pm 23.4 19.7 2.3 25 10.1 N 11 17 6 9 - - 0.0
22/02:30pm 23.6 20.0 3.0 26 10.0 N 11 20 6 11 - - 0.0
22/02:00pm 24.1 21.3 3.4 26 10.2 N 7 15 4 8 - - 0.0
22/01:30pm 23.3 20.2 3.8 28 9.6 NNW 9 15 5 8 - - 0.0
22/01:00pm 23.3 20.0 2.7 26 9.9 N 9 20 5 11 - - 0.0
22/12:30pm 23.1 20.0 3.6 28 9.5 WNW 9 17 5 9 - - 0.0
22/12:00pm 22.2 19.7 3.8 30 9.0 NNW 6 11 3 6 - - 0.0
22/11:30am 21.8 19.1 3.9 31 8.7 NW 7 13 4 7 - - 0.0
22/11:00am 21.4 18.7 5.7 36 7.9 N 9 17 5 9 - - 0.0
22/10:30am 20.9 18.0 4.9 35 7.9 N 9 17 5 9 - - 0.0
22/10:00am 19.7 17.5 6.1 41 6.8 NW 7 11 4 6 - - 0.0
22/09:30am 18.3 16.2 6.8 47 5.8 NW 7 11 4 6 - - 0.0
22/09:00am 16.6 14.6 6.4 51 5.0 NW 6 9 3 5 - - 0.0
22/08:30am 15.0 12.8 6.3 56 4.2 WNW 7 9 4 5 - - 0.0
22/08:00am 13.6 11.8 7.2 65 3.1 WNW 6 9 3 5 - - 0.0
22/07:30am 10.9 10.6 8.5 85 1.2 CALM 0 6 0 3 - - 0.0
22/07:00am 8.3 7.1 7.9 97 0.2 S 4 6 2 3 - - 0.0
22/06:30am 7.1 5.2 6.8 98 0.1 S 6 7 3 4 - - 0.0
22/06:00am 5.9 3.6 5.5 97 0.2 S 7 7 4 4 - - 0.0
22/05:30am 5.7 3.3 5.1 96 0.3 S 7 9 4 5 - - 0.0
22/05:00am 5.9 3.5 5.3 96 0.3 S 7 9 4 5 - - 0.0
22/04:30am 5.8 3.4 5.2 96 0.3 S 7 9 4 5 - - 0.0
22/04:00am 6.2 4.1 5.6 96 0.3 S 6 7 3 4 - - 0.0
22/03:30am 5.8 3.4 5.1 95 0.3 S 7 9 4 5 - - 0.0
22/03:00am 6.2 4.0 5.3 94 0.4 S 6 7 3 4 - - 0.0
22/02:30am 6.6 4.8 5.6 93 0.4 SSE 4 6 2 3 - - 0.0
22/02:00am 6.9 4.8 6.0 94 0.4 S 6 7 3 4 - - 0.0
22/01:30am 6.7 4.6 5.7 93 0.4 S 6 7 3 4 - - 0.0
22/01:00am 6.8 4.4 5.4 91 0.6 S 7 9 4 5 - - 0.0
22/12:30am 7.6 5.6 6.4 92 0.6 SSE 6 7 3 4 - - 0.0
22/12:00am 7.7 5.7 6.3 91 0.6 SSE 6 9 3 5 - - 0.0
 
Date/Time
EST
Temp
°C
App
Temp
°C
Dew
Point
°C
Rel
Hum
%
Delta-T
°C
Wind Press
QNH
hPa
Press
MSL
hPa
Rain since
9am
mm
Dir  Spd
km/h
Gust
km/h
Spd
kts
Gust
kts
21/11:30pm 7.7 5.5 6.0 89 0.8 S 7 7 4 4 - - 0.0
21/11:00pm 8.0 5.8 6.0 87 0.9 S 7 9 4 5 - - 0.0
21/10:30pm 8.5 6.6 6.5 87 0.9 S 6 7 3 4 - - 0.0
21/10:00pm 8.8 6.8 6.3 84 1.2 SSE 6 9 3 5 - - 0.0
21/09:30pm 9.1 6.9 6.2 82 1.3 SSE 7 9 4 5 - - 0.0
21/09:00pm 9.7 7.5 6.1 78 1.7 S 7 7 4 4 - - 0.0
21/08:30pm 10.4 8.3 6.0 74 2.1 S 6 7 3 4 - - 0.0
21/08:00pm 11.4 9.7 6.1 70 2.5 S 4 6 2 3 - - 0.0
21/07:30pm 12.4 10.8 6.2 66 3.0 ESE 4 6 2 3 - - 0.0
21/07:00pm 12.7 10.6 5.8 63 3.3 ESE 6 6 3 3 - - 0.0
21/06:30pm 13.4 11.3 5.6 59 3.7 ESE 6 7 3 4 - - 0.0
21/06:00pm 14.9 12.6 5.7 54 4.4 E 7 15 4 8 - - 0.0
21/05:30pm 16.1 13.8 5.7 50 5.0 ENE 7 15 4 8 - - 0.0
21/05:00pm 17.0 13.8 5.3 46 5.7 E 11 22 6 12 - - 0.0
21/04:30pm 18.1 14.9 5.3 43 6.2 ENE 11 22 6 12 - - 0.0
21/04:00pm 19.1 15.8 4.8 39 7.0 ENE 11 20 6 11 - - 0.0
21/03:30pm 20.0 16.6 4.1 35 7.7 ENE 11 20 6 11 - - 0.0
21/03:00pm 22.4 18.9 -1.6 20 10.6 NNW 7 13 4 7 - - 0.0
21/02:30pm 21.8 18.4 -0.8 22 10.1 NNW 7 15 4 8 - - 0.0
21/02:00pm 21.6 17.9 0.2 24 9.7 N 9 13 5 7 - - 0.0
21/01:30pm 21.4 18.4 1.7 27 9.2 NNE 7 17 4 9 - - 0.0
21/01:00pm 20.2 17.1 1.1 28 8.7 NE 7 17 4 9 - - 0.0
21/12:30pm 20.0 17.4 1.0 28 8.6 SSE 4 11 2 6 - - 0.0
21/12:00pm 20.0 16.8 1.0 28 8.6 NNE 7 15 4 8 - - 0.0
21/11:30am 19.2 16.6 1.2 30 8.2 SE 4 9 2 5 - - 0.0
21/11:00am 18.9 16.0 1.4 31 7.9 N 6 13 3 7 - - 0.0
21/10:30am 18.1 15.3 2.0 34 7.4 NNW 6 11 3 6 - - 0.0
21/10:00am 16.6 13.8 1.9 37 6.6 WNW 6 9 3 5 - - 0.0
21/09:30am 15.5 12.9 3.0 43 5.7 NW 6 11 3 6 - - 0.0
21/09:00am 14.3 11.8 4.0 50 4.8 NW 6 11 3 6 - - 0.0
21/08:30am 12.8 10.4 4.5 57 3.8 WNW 6 7 3 4 - - 0.0
21/08:00am 11.0 9.9 5.3 68 2.6 CALM 0 4 0 2 - - 0.0
21/07:30am 8.5 6.9 4.5 76 1.8 S 2 4 1 2 - - 0.0
21/07:00am 5.7 3.2 3.7 87 0.8 S 6 7 3 4 - - 0.0
21/06:30am 3.9 1.1 3.0 94 0.4 S 7 9 4 5 - - 0.0
21/06:00am 3.3 0.4 2.6 95 0.3 S 7 9 4 5 - - 0.0
21/05:30am 3.3 0.4 2.6 95 0.3 SSE 7 9 4 5 - - 0.0
21/05:00am 3.5 0.6 2.6 94 0.4 S 7 9 4 5 - - 0.0
21/04:30am 3.5 0.6 2.5 93 0.4 S 7 9 4 5 - - 0.0
21/04:00am 3.9 1.1 3.0 94 0.4 SSE 7 9 4 5 - - 0.0
21/03:30am 3.7 0.5 2.8 94 0.4 SSE 9 9 5 5 - - 0.0
21/03:00am 3.9 0.7 3.0 94 0.4 S 9 9 5 5 - - 0.0
21/02:30am 3.9 0.7 3.0 94 0.4 SSE 9 9 5 5 - - 0.0
21/02:00am 4.1 0.9 3.1 93 0.4 SSE 9 9 5 5 - - 0.0
21/01:30am 4.2 1.4 3.0 92 0.5 S 7 9 4 5 - - 0.0
21/01:00am 4.6 1.8 3.4 92 0.5 SSE 7 9 4 5 - - 0.0
21/12:30am 4.8 2.1 3.6 92 0.5 S 7 7 4 4 - - 0.0
21/12:00am 4.9 2.4 3.6 91 0.5 S 6 7 3 4 - - 0.0
 
Date/Time
EST
Temp
°C
App
Temp
°C
Dew
Point
°C
Rel
Hum
%
Delta-T
°C
Wind Press
QNH
hPa
Press
MSL
hPa
Rain since
9am
mm
Dir  Spd
km/h
Gust
km/h
Spd
kts
Gust
kts
20/11:30pm 5.1 2.4 3.8 91 0.6 S 7 9 4 5 - - 0.0
20/11:00pm 5.6 3.1 3.9 89 0.7 S 6 6 3 3 - - 0.0
20/10:30pm 5.8 3.3 4.0 88 0.8 S 6 7 3 4 - - 0.0
20/10:00pm 6.4 4.0 4.2 86 1.0 S 6 7 3 4 - - 0.0
20/09:30pm 6.9 4.5 4.4 84 1.1 SSW 6 6 3 3 - - 0.0
20/09:00pm 7.3 4.9 4.4 82 1.3 S 6 7 3 4 - - 0.0
20/08:30pm 8.3 5.7 4.1 75 1.8 SSE 7 9 4 5 - - 0.0
20/08:00pm 9.4 6.9 4.8 73 2.1 SSE 7 9 4 5 - - 0.0
20/07:30pm 9.6 7.2 4.4 70 2.3 SSE 6 7 3 4 - - 0.0
20/07:00pm 9.9 7.5 4.1 67 2.6 S 6 7 3 4 - - 0.0
20/06:30pm 10.9 8.4 3.9 62 3.1 SSE 6 7 3 4 - - 0.0
20/06:00pm 11.7 9.2 3.7 58 3.6 SSE 6 9 3 5 - - 0.0
20/05:30pm 12.7 9.6 3.4 53 4.2 SE 9 15 5 8 - - 0.0
20/05:00pm 13.4 9.8 3.2 50 4.6 SE 11 19 6 10 - - 0.0
20/04:30pm 13.9 10.3 3.1 48 4.9 SE 11 20 6 11 - - 0.0

Other Formats:

Comma delimited format used in spreadsheet applications
http://www.bom.gov.au/fwo/IDN60801/IDN60801.95684.axf

JavaScript Object Notation format (JSON) in row-major order
http://www.bom.gov.au/fwo/IDN60801/IDN60801.95684.json